Time;durP1;ratioP1;P1;durP2;ratioP2;P2;SDS_P1;SDS_P2;PMS_P1;PMS_P2;Temp;Humidity;BMP_temperature;BMP_pressure;BME280_temperature;BME280_humidity;BME280_pressure;Samples;Min_cycle;Max_cycle;Signal;HPM_P1;HPM_P2
2021/09/13 00:01:01;;;;;;;7.78;5.25;;;15.00;99.90;;;;;;6067793;23;20175;-72
2021/09/13 00:03:29;;;;;;;6.53;5.55;;;15.00;99.90;;;;;;6067312;23;20194;-71
2021/09/13 00:05:57;;;;;;;6.80;4.85;;;15.00;99.90;;;;;;6068614;23;20167;-71
2021/09/13 00:08:59;;;;;;;12.20;5.68;;;15.00;99.90;;;;;;6069323;23;20174;-70
2021/09/13 00:11:26;;;;;;;8.27;4.95;;;14.90;99.90;;;;;;6067691;23;20198;-71
2021/09/13 00:13:54;;;;;;;4.82;3.80;;;14.90;99.90;;;;;;6068374;23;20167;-70
2021/09/13 00:16:21;;;;;;;6.65;6.05;;;14.90;99.90;;;;;;6068560;23;20190;-71
2021/09/13 00:18:50;;;;;;;7.88;5.57;;;14.90;99.90;;;;;;6068219;23;20667;-70
2021/09/13 00:21:17;;;;;;;6.95;5.32;;;14.90;99.90;;;;;;6066592;23;20655;-71
2021/09/13 00:23:44;;;;;;;8.50;4.13;;;14.90;99.90;;;;;;6068094;23;20194;-71
2021/09/13 00:26:11;;;;;;;7.07;4.35;;;14.90;99.90;;;;;;6068812;23;20169;-71
2021/09/13 00:28:38;;;;;;;7.20;5.45;;;14.90;99.90;;;;;;6068065;23;20195;-70
2021/09/13 00:31:07;;;;;;;11.75;6.03;;;15.00;99.90;;;;;;6067766;23;20187;-71
2021/09/13 00:33:34;;;;;;;7.82;4.45;;;14.90;99.90;;;;;;6067460;23;20163;-70
2021/09/13 00:36:03;;;;;;;5.95;4.55;;;14.90;99.90;;;;;;6068788;23;20547;-71
2021/09/13 00:38:30;;;;;;;8.95;4.68;;;15.00;99.90;;;;;;6067879;23;20210;-71
2021/09/13 00:40:57;;;;;;;12.18;5.72;;;15.00;99.90;;;;;;6068304;23;20238;-70
2021/09/13 00:43:24;;;;;;;8.77;4.70;;;15.10;99.90;;;;;;6067394;23;20194;-70
2021/09/13 00:45:51;;;;;;;6.47;5.38;;;15.10;99.90;;;;;;6068101;23;20194;-70
2021/09/13 00:48:18;;;;;;;8.93;4.13;;;15.10;99.90;;;;;;6067923;23;20166;-71
2021/09/13 00:50:46;;;;;;;11.65;4.97;;;15.10;99.90;;;;;;6067747;23;20174;-71
2021/09/13 00:53:14;;;;;;;7.03;4.75;;;15.00;99.90;;;;;;6067501;23;20673;-71
2021/09/13 00:55:41;;;;;;;7.03;4.93;;;15.00;99.90;;;;;;6067980;23;20171;-70
2021/09/13 00:58:09;;;;;;;7.97;5.70;;;14.90;99.90;;;;;;6067653;23;20164;-70
2021/09/13 01:00:36;;;;;;;5.60;4.80;;;14.90;99.90;;;;;;6068088;23;20614;-70
2021/09/13 01:03:04;;;;;;;10.55;5.38;;;14.90;99.90;;;;;;6066784;23;20533;-71
2021/09/13 01:05:31;;;;;;;8.10;5.88;;;14.80;99.90;;;;;;6067686;23;20168;-70
2021/09/13 01:07:59;;;;;;;6.00;5.00;;;14.90;99.90;;;;;;6067214;23;20525;-71
2021/09/13 01:10:28;;;;;;;6.82;4.50;;;14.90;99.90;;;;;;6067912;23;20167;-71
2021/09/13 01:12:55;;;;;;;7.72;4.70;;;15.00;99.90;;;;;;6066795;23;20267;-70
2021/09/13 01:15:23;;;;;;;7.18;4.88;;;14.90;99.90;;;;;;6068058;23;20167;-70
2021/09/13 01:17:50;;;;;;;10.77;4.93;;;15.10;99.90;;;;;;6067401;23;20169;-71
2021/09/13 01:20:17;;;;;;;10.32;5.50;;;15.10;99.90;;;;;;6066074;23;20163;-71
2021/09/13 01:22:47;;;;;;;7.15;5.50;;;15.10;99.90;;;;;;6066471;23;20203;-71
2021/09/13 01:25:15;;;;;;;8.60;5.50;;;15.20;99.90;;;;;;6067804;23;20219;-71
2021/09/13 01:27:43;;;;;;;10.93;4.70;;;15.20;99.90;;;;;;6067742;23;20603;-71
2021/09/13 01:30:11;;;;;;;8.43;5.00;;;15.20;99.90;;;;;;6068102;23;20163;-71
2021/09/13 01:32:40;;;;;;;8.30;5.60;;;15.30;99.90;;;;;;6066162;23;20211;-70
2021/09/13 01:35:09;;;;;;;7.47;4.65;;;15.30;99.90;;;;;;6067838;23;20167;-71
2021/09/13 01:37:36;;;;;;;5.57;4.97;;;15.30;99.90;;;;;;6067767;23;20246;-70
2021/09/13 01:40:04;;;;;;;6.95;5.30;;;15.30;99.90;;;;;;6067874;23;20167;-71
2021/09/13 01:42:32;;;;;;;8.32;5.10;;;15.40;99.90;;;;;;6066679;23;20207;-70
2021/09/13 01:45:00;;;;;;;9.82;5.82;;;15.40;99.90;;;;;;6067762;23;20171;-70
2021/09/13 01:47:28;;;;;;;9.18;4.35;;;15.40;99.90;;;;;;6067307;23;20507;-71
2021/09/13 01:49:55;;;;;;;6.15;4.60;;;15.50;99.90;;;;;;6066595;23;20164;-71
2021/09/13 01:52:22;;;;;;;7.07;5.15;;;15.50;99.90;;;;;;6068433;23;20205;-71
2021/09/13 01:54:55;;;;;;;9.38;4.30;;;15.50;99.90;;;;;;6067651;23;20171;-70
2021/09/13 01:57:22;;;;;;;11.25;5.28;;;15.50;99.90;;;;;;6067975;23;20167;-71
2021/09/13 01:59:51;;;;;;;7.88;4.65;;;15.60;99.90;;;;;;6066880;23;20774;-70
2021/09/13 02:02:18;;;;;;;6.97;5.00;;;15.60;99.90;;;;;;6066576;23;20203;-70
2021/09/13 02:04:45;;;;;;;6.70;5.22;;;15.60;99.90;;;;;;6067491;23;20171;-71
2021/09/13 02:07:12;;;;;;;10.27;4.55;;;15.60;99.90;;;;;;6067661;23;20164;-70
2021/09/13 02:09:39;;;;;;;8.93;4.95;;;15.70;99.90;;;;;;6067811;23;20167;-70
2021/09/13 02:12:07;;;;;;;6.03;4.07;;;15.70;99.90;;;;;;6066561;23;20199;-71
2021/09/13 02:14:34;;;;;;;8.20;5.25;;;15.70;99.90;;;;;;6067756;23;20164;-70
2021/09/13 02:17:03;;;;;;;6.05;5.18;;;15.70;99.90;;;;;;6066971;23;20191;-71
2021/09/13 02:19:32;;;;;;;8.32;5.80;;;15.80;99.90;;;;;;6067640;23;20168;-70
2021/09/13 02:21:59;;;;;;;11.35;6.13;;;15.80;99.90;;;;;;6066738;23;20660;-70
2021/09/13 02:24:26;;;;;;;8.50;5.43;;;15.80;99.90;;;;;;6067928;23;20171;-70
2021/09/13 02:26:53;;;;;;;15.45;5.80;;;15.80;99.90;;;;;;6067515;23;20565;-70
2021/09/13 02:29:20;;;;;;;9.05;6.35;;;15.90;99.90;;;;;;6067837;23;20491;-70
2021/09/13 02:31:47;;;;;;;8.88;5.97;;;15.90;99.90;;;;;;6066361;23;20211;-71
2021/09/13 02:34:16;;;;;;;9.73;6.18;;;15.90;99.90;;;;;;6067451;23;20159;-70
2021/09/13 02:36:43;;;;;;;11.57;6.38;;;15.90;99.90;;;;;;6067330;23;20168;-71
2021/09/13 02:39:10;;;;;;;6.28;5.43;;;16.00;99.90;;;;;;6067145;23;20182;-70
2021/09/13 02:41:38;;;;;;;10.50;4.90;;;16.00;99.90;;;;;;6066631;23;20531;-71
2021/09/13 02:44:06;;;;;;;9.15;5.78;;;16.00;99.90;;;;;;6066984;23;20187;-69
2021/09/13 02:46:33;;;;;;;11.30;5.88;;;16.00;99.90;;;;;;6067608;23;20168;-70
2021/09/13 02:49:00;;;;;;;11.43;6.05;;;16.00;99.90;;;;;;6067134;23;20169;-70
2021/09/13 02:51:29;;;;;;;9.70;6.63;;;16.00;99.90;;;;;;6065972;23;20206;-70
2021/09/13 02:53:56;;;;;;;10.20;6.13;;;16.00;99.90;;;;;;6067331;23;20171;-70
2021/09/13 02:56:23;;;;;;;16.83;7.47;;;16.00;99.90;;;;;;6066856;23;20176;-70
2021/09/13 02:58:50;;;;;;;8.30;6.63;;;16.00;99.90;;;;;;6067397;23;20183;-70
2021/09/13 03:01:17;;;;;;;13.05;7.63;;;16.00;99.90;;;;;;6066971;23;20205;-70
2021/09/13 03:03:44;;;;;;;11.50;7.05;;;16.00;99.90;;;;;;6067987;23;20632;-70
2021/09/13 03:06:12;;;;;;;16.35;7.68;;;16.00;99.90;;;;;;6043617;23;20515;-70
2021/09/13 03:08:41;;;;;;;8.65;6.70;;;16.00;99.90;;;;;;6069058;23;20195;-70
2021/09/13 03:11:08;;;;;;;10.25;7.85;;;16.00;99.90;;;;;;6068674;23;20588;-70
2021/09/13 03:13:35;;;;;;;10.40;7.57;;;16.00;99.90;;;;;;6068281;23;20173;-70
2021/09/13 03:16:02;;;;;;;10.77;7.13;;;15.90;99.90;;;;;;6069104;23;20180;-70
2021/09/13 03:18:29;;;;;;;12.75;8.43;;;15.90;99.90;;;;;;6068440;23;20189;-70
2021/09/13 03:20:57;;;;;;;17.52;8.15;;;15.90;99.90;;;;;;6068698;23;20623;-70
2021/09/13 03:23:24;;;;;;;8.88;6.63;;;16.00;99.90;;;;;;6067910;23;20203;-70
2021/09/13 03:25:52;;;;;;;13.45;8.50;;;16.00;99.90;;;;;;6069202;23;20164;-70
2021/09/13 03:28:20;;;;;;;11.10;7.85;;;16.00;99.90;;;;;;6068725;23;20172;-70
2021/09/13 03:30:48;;;;;;;11.50;8.38;;;16.00;99.90;;;;;;6068119;23;20168;-70
2021/09/13 03:33:15;;;;;;;12.10;7.30;;;16.00;99.90;;;;;;6067875;23;20197;-69
2021/09/13 03:35:42;;;;;;;12.25;8.95;;;16.00;99.90;;;;;;6068548;23;20592;-69
2021/09/13 03:38:09;;;;;;;9.73;7.53;;;16.00;99.90;;;;;;6068899;23;20195;-69
2021/09/13 03:40:36;;;;;;;13.35;8.35;;;15.90;99.90;;;;;;6068457;23;20170;-69
2021/09/13 03:43:05;;;;;;;12.68;8.85;;;15.90;99.90;;;;;;6067925;23;20203;-70
2021/09/13 03:45:32;;;;;;;12.95;9.00;;;16.00;99.90;;;;;;6069591;23;20492;-70
2021/09/13 03:47:59;;;;;;;9.05;6.85;;;16.00;99.90;;;;;;6068896;23;20633;-69
2021/09/13 03:50:26;;;;;;;9.10;7.43;;;16.00;99.90;;;;;;6069202;23;20165;-70
2021/09/13 03:52:53;;;;;;;17.00;8.13;;;16.10;99.90;;;;;;6067243;23;20207;-70
2021/09/13 03:55:21;;;;;;;13.25;8.55;;;16.10;99.90;;;;;;6068416;23;20618;-70
2021/09/13 03:57:48;;;;;;;10.50;8.20;;;16.00;99.90;;;;;;6069079;23;20171;-70
2021/09/13 04:00:17;;;;;;;13.95;7.50;;;16.00;99.90;;;;;;6068380;23;20171;-72
2021/09/13 04:02:47;;;;;;;11.40;8.10;;;15.90;99.90;;;;;;6067627;23;20200;-70
2021/09/13 04:05:19;;;;;;;15.48;8.45;;;15.90;99.90;;;;;;6068416;23;20170;-70
2021/09/13 04:08:04;;;;;;;16.05;8.68;;;15.90;99.90;;;;;;6068465;23;20172;-71
2021/09/13 04:10:36;;;;;;;15.90;8.82;;;15.80;99.90;;;;;;6067781;23;20168;-70
2021/09/13 04:13:03;;;;;;;15.32;8.77;;;15.80;99.90;;;;;;6067519;23;20533;-70
2021/09/13 04:15:34;;;;;;;9.30;8.18;;;15.90;99.90;;;;;;6068293;23;20168;-70
2021/09/13 04:18:01;;;;;;;9.65;7.05;;;15.90;99.90;;;;;;6068204;23;20576;-70
2021/09/13 04:20:28;;;;;;;12.50;8.02;;;15.90;99.90;;;;;;6068123;23;20164;-70
2021/09/13 04:22:56;;;;;;;12.07;7.10;;;16.00;99.90;;;;;;6067137;23;20211;-70
2021/09/13 04:25:23;;;;;;;10.73;8.10;;;16.00;99.90;;;;;;6068027;23;20558;-70
2021/09/13 04:27:50;;;;;;;14.25;9.57;;;16.00;99.90;;;;;;6068472;23;20183;-70
2021/09/13 04:30:17;;;;;;;12.63;7.90;;;16.10;99.90;;;;;;6068097;23;20471;-70
2021/09/13 04:32:45;;;;;;;15.57;8.95;;;16.00;99.90;;;;;;6066947;23;20207;-70
2021/09/13 04:35:13;;;;;;;13.63;8.73;;;16.10;99.90;;;;;;6068148;23;20196;-70
2021/09/13 04:37:40;;;;;;;14.05;8.60;;;16.00;99.90;;;;;;6068059;23;20168;-69
2021/09/13 04:40:08;;;;;;;15.32;8.35;;;16.00;99.90;;;;;;6068667;23;20170;-70
2021/09/13 04:42:36;;;;;;;11.50;7.45;;;16.00;99.90;;;;;;6066854;23;20203;-69
2021/09/13 04:45:03;;;;;;;10.77;7.63;;;16.00;99.90;;;;;;6067888;23;20189;-70
2021/09/13 04:47:30;;;;;;;8.77;6.95;;;16.10;99.90;;;;;;6067569;23;20207;-70
2021/09/13 04:50:00;;;;;;;9.65;6.80;;;16.10;99.90;;;;;;6067721;23;20165;-70
2021/09/13 04:52:27;;;;;;;10.65;7.47;;;16.10;99.90;;;;;;6066629;23;20204;-71
2021/09/13 04:54:54;;;;;;;14.85;11.45;;;16.20;99.90;;;;;;6067753;23;20175;-71
2021/09/13 04:57:21;;;;;;;14.05;11.00;;;16.20;99.90;;;;;;6067770;23;20185;-71
2021/09/13 04:59:48;;;;;;;12.15;9.55;;;16.40;99.90;;;;;;6067480;23;20170;-70
2021/09/13 05:02:15;;;;;;;13.13;9.00;;;16.40;99.90;;;;;;6067204;23;20204;-70
2021/09/13 05:04:43;;;;;;;16.55;9.45;;;16.40;99.90;;;;;;6067298;23;20272;-70
2021/09/13 05:07:11;;;;;;;12.55;9.15;;;16.40;99.90;;;;;;6067355;23;20181;-71
2021/09/13 05:09:39;;;;;;;22.30;12.68;;;16.50;99.90;;;;;;6067507;23;20165;-71
2021/09/13 05:12:06;;;;;;;15.63;9.50;;;16.60;99.90;;;;;;6066849;23;20240;-71
2021/09/13 05:14:33;;;;;;;16.90;14.27;;;16.60;99.90;;;;;;6067986;23;20165;-71
2021/09/13 05:17:00;;;;;;;29.40;21.40;;;16.60;99.90;;;;;;6067001;23;20734;-72
2021/09/13 05:19:28;;;;;;;20.48;14.95;;;16.70;99.90;;;;;;6067298;23;20767;-72
2021/09/13 05:21:55;;;;;;;21.93;15.30;;;16.80;99.90;;;;;;6066784;23;20691;-71
2021/09/13 05:24:23;;;;;;;14.37;10.83;;;16.90;99.90;;;;;;6067922;23;20434;-73
2021/09/13 05:26:50;;;;;;;12.02;8.50;;;17.00;99.90;;;;;;6066883;23;20399;-72
2021/09/13 05:29:18;;;;;;;17.40;11.27;;;17.00;99.90;;;;;;6067427;23;20169;-72
2021/09/13 05:31:45;;;;;;;14.05;8.40;;;16.90;99.90;;;;;;6066010;23;20213;-70
2021/09/13 05:34:12;;;;;;;16.02;9.60;;;16.90;99.90;;;;;;6067230;23;20601;-71
2021/09/13 05:36:39;;;;;;;15.43;12.55;;;16.90;99.90;;;;;;6066462;23;20176;-71
2021/09/13 05:39:07;;;;;;;37.33;28.02;;;17.00;99.90;;;;;;6066993;23;20497;-71
2021/09/13 05:41:35;;;;;;;34.08;24.75;;;17.10;99.90;;;;;;6066535;23;20737;-71
2021/09/13 05:44:04;;;;;;;39.63;27.15;;;17.10;99.90;;;;;;6065708;23;20627;-71
2021/09/13 05:46:31;;;;;;;34.07;26.63;;;17.10;99.90;;;;;;6066937;23;20555;-71
2021/09/13 05:48:58;;;;;;;25.55;22.23;;;17.20;99.90;;;;;;6067173;23;20402;-72
2021/09/13 05:51:26;;;;;;;19.60;14.23;;;17.10;99.90;;;;;;6066547;23;20208;-72
2021/09/13 05:53:53;;;;;;;25.90;20.63;;;17.20;99.90;;;;;;6066599;23;20172;-70
2021/09/13 05:56:21;;;;;;;16.53;13.50;;;17.20;99.90;;;;;;6067264;23;20411;-72
2021/09/13 05:58:49;;;;;;;20.47;16.97;;;17.20;99.90;;;;;;6067305;23;20399;-70
2021/09/13 06:01:17;;;;;;;16.77;12.77;;;17.30;99.90;;;;;;6066830;23;20437;-71
2021/09/13 06:03:44;;;;;;;15.93;11.80;;;17.40;99.90;;;;;;6066247;23;20431;-70
2021/09/13 06:06:11;;;;;;;15.57;10.63;;;17.50;99.90;;;;;;6067113;23;20398;-71
2021/09/13 06:08:38;;;;;;;16.77;13.13;;;17.60;99.90;;;;;;6067327;23;20398;-71
2021/09/13 06:11:07;;;;;;;27.30;19.83;;;17.60;99.90;;;;;;6067221;23;20397;-70
2021/09/13 06:13:34;;;;;;;32.87;23.00;;;17.80;99.90;;;;;;6066491;23;20395;-69
2021/09/13 06:16:02;;;;;;;21.30;14.37;;;18.20;99.90;;;;;;6067384;23;20486;-70
2021/09/13 06:18:30;;;;;;;18.40;10.53;;;18.60;99.90;;;;;;6066505;23;20441;-69
2021/09/13 06:20:57;;;;;;;13.53;9.00;;;18.80;99.90;;;;;;6066202;23;20400;-69
2021/09/13 06:23:24;;;;;;;14.43;10.03;;;18.80;99.90;;;;;;6065557;23;20406;-70
2021/09/13 06:25:52;;;;;;;16.50;9.10;;;18.80;99.90;;;;;;6066508;23;20403;-70
2021/09/13 06:28:19;;;;;;;15.17;10.07;;;18.70;99.90;;;;;;6066717;23;20392;-71
2021/09/13 06:30:47;;;;;;;14.47;10.97;;;18.70;99.90;;;;;;6067136;23;20427;-71
2021/09/13 06:33:17;;;;;;;17.87;9.00;;;18.50;99.90;;;;;;6066328;23;20529;-72
2021/09/13 06:35:44;;;;;;;14.80;10.17;;;18.40;99.90;;;;;;6066655;23;20392;-69
2021/09/13 06:38:11;;;;;;;18.13;11.70;;;18.40;99.90;;;;;;6068772;23;20413;-70
2021/09/13 06:40:39;;;;;;;18.70;14.50;;;18.30;99.90;;;;;;6068248;23;20404;-71
2021/09/13 06:43:06;;;;;;;18.73;13.87;;;18.30;99.90;;;;;;6066749;23;20431;-70
2021/09/13 06:45:40;;;;;;;19.67;13.93;;;18.40;99.90;;;;;;6066773;23;20494;-71
2021/09/13 06:48:08;;;;;;;18.10;13.10;;;18.50;99.90;;;;;;6068271;23;20430;-71
2021/09/13 06:50:39;;;;;;;21.73;14.53;;;18.70;99.90;;;;;;6068059;23;20482;-71
2021/09/13 06:53:06;;;;;;;19.47;14.07;;;18.90;99.90;;;;;;6042523;23;20431;-71
2021/09/13 06:55:36;;;;;;;14.93;11.10;;;18.90;99.90;;;;;;6068671;23;20392;-70
2021/09/13 06:58:05;;;;;;;18.90;12.17;;;19.00;99.90;;;;;;6068377;23;20421;-70
2021/09/13 07:00:32;;;;;;;13.40;11.90;;;19.10;99.90;;;;;;6070176;23;20487;-70
2021/09/13 07:02:59;;;;;;;16.03;11.67;;;19.20;99.90;;;;;;6067596;23;20443;-70
2021/09/13 07:05:27;;;;;;;15.70;12.47;;;19.40;99.90;;;;;;6068208;23;20518;-71
2021/09/13 07:07:56;;;;;;;14.30;10.90;;;19.40;99.90;;;;;;6068502;23;20403;-68
2021/09/13 07:10:23;;;;;;;17.57;10.43;;;20.10;99.90;;;;;;6067616;23;20496;-70
2021/09/13 07:12:50;;;;;;;13.80;9.10;;;21.00;99.90;;;;;;6067580;23;20777;-70
2021/09/13 07:15:18;;;;;;;13.33;9.40;;;21.60;99.90;;;;;;6068483;23;20393;-70
2021/09/13 07:17:45;;;;;;;16.07;11.37;;;22.70;99.90;;;;;;6068795;23;20407;-70
2021/09/13 07:20:13;;;;;;;15.70;11.33;;;23.80;99.90;;;;;;6068828;23;20395;-71
2021/09/13 07:22:41;;;;;;;10.80;9.33;;;24.30;99.90;;;;;;6067993;23;20514;-69
2021/09/13 07:25:10;;;;;;;16.20;10.70;;;24.20;99.90;;;;;;6068358;23;20518;-71
2021/09/13 07:27:39;;;;;;;16.93;10.93;;;24.00;99.90;;;;;;6068264;23;20391;-70
2021/09/13 07:30:09;;;;;;;12.20;10.07;;;23.70;99.90;;;;;;6068761;23;20486;-70
2021/09/13 07:32:36;;;;;;;16.27;9.50;;;23.30;99.90;;;;;;6067010;23;20931;-70
2021/09/13 07:35:05;;;;;;;17.50;9.97;;;23.10;99.90;;;;;;6068585;23;20396;-70
2021/09/13 07:37:32;;;;;;;15.30;9.20;;;22.70;99.90;;;;;;6068064;23;20403;-70
2021/09/13 07:39:59;;;;;;;10.50;8.30;;;22.40;99.90;;;;;;6068247;23;21205;-70
2021/09/13 07:42:28;;;;;;;12.47;8.53;;;22.20;99.90;;;;;;6066748;23;20521;-70
2021/09/13 07:44:55;;;;;;;18.30;9.50;;;21.90;99.90;;;;;;6067965;23;20433;-70
2021/09/13 07:47:22;;;;;;;9.60;6.87;;;21.70;99.90;;;;;;6068316;23;20384;-70
2021/09/13 07:49:50;;;;;;;11.47;8.23;;;21.60;99.90;;;;;;6067789;23;20708;-71
2021/09/13 07:52:17;;;;;;;13.20;7.70;;;21.50;99.90;;;;;;6067066;23;20442;-70
2021/09/13 07:54:45;;;;;;;10.60;8.33;;;21.40;99.90;;;;;;6067880;23;20718;-71
2021/09/13 07:57:12;;;;;;;11.13;8.07;;;21.20;99.90;;;;;;6067668;23;20399;-70
2021/09/13 07:59:47;;;;;;;18.40;10.57;;;20.80;99.90;;;;;;6068023;23;20431;-70
2021/09/13 08:02:14;;;;;;;11.80;8.53;;;20.70;99.90;;;;;;6067471;23;20454;-71
2021/09/13 08:04:41;;;;;;;12.43;8.20;;;20.60;99.90;;;;;;6068070;23;20438;-71
2021/09/13 08:07:08;;;;;;;12.47;7.53;;;20.50;99.90;;;;;;6068016;23;20409;-70
2021/09/13 08:09:35;;;;;;;16.10;7.07;;;20.40;99.90;;;;;;6067855;23;20874;-71
2021/09/13 08:12:02;;;;;;;10.07;6.47;;;20.40;99.90;;;;;;6066768;23;20433;-71
2021/09/13 08:14:29;;;;;;;12.23;6.60;;;20.40;99.90;;;;;;6068024;23;20481;-71
2021/09/13 08:16:58;;;;;;;8.90;6.50;;;20.30;99.90;;;;;;6068027;23;20396;-71
2021/09/13 08:19:25;;;;;;;13.13;7.70;;;20.30;99.90;;;;;;6067925;23;20851;-71
2021/09/13 08:21:52;;;;;;;14.03;6.80;;;20.20;99.90;;;;;;6067690;23;20438;-71
2021/09/13 08:24:19;;;;;;;10.90;7.47;;;20.20;99.90;;;;;;6067962;23;20445;-70
2021/09/13 08:26:46;;;;;;;13.17;6.17;;;20.20;99.90;;;;;;6068550;23;20486;-70
2021/09/13 08:29:15;;;;;;;7.27;5.43;;;20.40;99.90;;;;;;6067905;23;20384;-70
2021/09/13 08:31:43;;;;;;;11.80;6.73;;;20.50;99.90;;;;;;6067221;23;20447;-70
2021/09/13 08:34:13;;;;;;;11.17;6.13;;;20.60;99.90;;;;;;6066992;23;21196;-70
2021/09/13 08:36:40;;;;;;;19.23;7.63;;;20.60;99.90;;;;;;6068174;23;20425;-71
2021/09/13 08:39:07;;;;;;;10.60;7.60;;;20.70;99.90;;;;;;6067853;23;20396;-70
2021/09/13 08:41:35;;;;;;;15.20;7.17;;;20.90;99.90;;;;;;6067751;23;20956;-70
2021/09/13 08:44:03;;;;;;;9.13;6.03;;;20.90;99.90;;;;;;6067407;23;20403;-70
2021/09/13 08:46:41;;;;;;;14.00;6.27;;;21.00;99.90;;;;;;6067479;23;20404;-71
2021/09/13 08:49:10;;;;;;;8.83;5.40;;;21.10;99.90;;;;;;6067100;23;20742;-70
2021/09/13 08:51:39;;;;;;;10.97;6.10;;;21.20;99.90;;;;;;6067493;23;20934;-71
2021/09/13 08:54:09;;;;;;;11.20;6.30;;;21.30;99.90;;;;;;6066589;23;20398;-70
2021/09/13 08:56:40;;;;;;;13.40;5.20;;;21.50;99.90;;;;;;6067079;23;20406;-71
2021/09/13 08:59:14;;;;;;;11.07;5.60;;;21.50;99.90;;;;;;6066718;23;20405;-69
2021/09/13 09:01:41;;;;;;;11.10;5.03;;;21.50;99.90;;;;;;6041483;23;20438;-71
2021/09/13 09:04:11;;;;;;;6.87;3.70;;;21.50;99.90;;;;;;6066622;23;20816;-70
2021/09/13 09:06:41;;;;;;;8.57;4.70;;;21.40;99.90;;;;;;6066985;23;20433;-70
2021/09/13 09:09:10;;;;;;;4.20;3.20;;;21.60;99.90;;;;;;6067669;23;20898;-70
2021/09/13 09:11:59;;;;;;;5.53;3.03;;;21.60;99.90;;;;;;6066969;23;20438;-70
2021/09/13 09:14:30;;;;;;;4.63;2.60;;;21.60;99.90;;;;;;6042354;23;20399;-70
2021/09/13 09:16:58;;;;;;;5.27;2.60;;;21.70;99.90;;;;;;6067301;23;20865;-70
2021/09/13 09:19:26;;;;;;;6.00;3.27;;;21.50;99.90;;;;;;6067311;23;20760;-70
2021/09/13 09:21:55;;;;;;;5.80;2.87;;;21.40;99.90;;;;;;6066545;23;20509;-70
2021/09/13 09:24:25;;;;;;;7.40;2.67;;;21.60;99.90;;;;;;6067194;23;20395;-71
2021/09/13 09:27:04;;;;;;;4.77;2.10;;;21.70;99.90;;;;;;6067146;23;20403;-71
2021/09/13 09:29:33;;;;;;;7.00;2.80;;;21.70;99.90;;;;;;6067338;23;20402;-71
2021/09/13 09:32:01;;;;;;;8.87;2.33;;;21.80;99.90;;;;;;6066656;23;20826;-70
2021/09/13 09:34:33;;;;;;;7.67;2.33;;;21.80;99.90;;;;;;6066628;23;20434;-70
2021/09/13 09:37:11;;;;;;;7.43;3.17;;;21.80;99.90;;;;;;6066916;23;20477;-70
2021/09/13 09:39:41;;;;;;;4.13;2.23;;;21.70;99.90;;;;;;6067309;23;20402;-70
2021/09/13 09:42:10;;;;;;;5.70;2.17;;;21.70;99.90;;;;;;6066244;23;20470;-70
2021/09/13 09:44:38;;;;;;;8.53;2.27;;;21.70;99.90;;;;;;6067195;23;20393;-70
2021/09/13 09:47:09;;;;;;;7.57;3.17;;;21.70;99.90;;;;;;6067177;23;20399;-70
2021/09/13 09:49:47;;;;;;;5.47;2.53;;;21.80;99.90;;;;;;6066745;23;20403;-71
2021/09/13 09:52:31;;;;;;;6.50;3.27;;;22.00;99.90;;;;;;6066711;23;20445;-71
2021/09/13 09:55:13;;;;;;;4.17;2.10;;;22.20;99.90;;;;;;6067324;23;20406;-69
2021/09/13 09:57:42;;;;;;;5.40;2.60;;;22.50;99.90;;;;;;6040688;23;20411;-71
2021/09/13 10:00:21;;;;;;;7.47;2.63;;;22.40;99.90;;;;;;6066475;23;20402;-70
2021/09/13 10:02:48;;;;;;;4.43;2.37;;;22.20;99.90;;;;;;6066401;23;20430;-70
2021/09/13 10:05:15;;;;;;;9.40;2.70;;;22.00;99.90;;;;;;6067389;23;20767;-69
2021/09/13 10:07:45;;;;;;;6.47;3.30;;;21.50;99.90;;;;;;6066788;23;20399;-70
2021/09/13 10:10:13;;;;;;;6.83;2.83;;;21.50;99.90;;;;;;6067000;23;20513;-71
2021/09/13 10:12:41;;;;;;;6.70;3.40;;;21.40;99.90;;;;;;6065097;23;20881;-71
2021/09/13 10:15:10;;;;;;;2.63;2.23;;;21.20;99.90;;;;;;6066834;23;20852;-71
2021/09/13 10:17:38;;;;;;;5.50;3.00;;;21.00;99.90;;;;;;6067171;23;20499;-69
2021/09/13 10:20:07;;;;;;;9.27;3.00;;;21.00;99.90;;;;;;6066762;23;20399;-70
2021/09/13 10:22:37;;;;;;;6.03;2.80;;;21.10;99.90;;;;;;6066257;23;20449;-70
2021/09/13 10:25:10;;;;;;;4.20;2.03;;;21.20;99.90;;;;;;6066622;23;20469;-70
2021/09/13 10:27:40;;;;;;;7.03;2.83;;;21.50;99.90;;;;;;6067893;23;20409;-70
2021/09/13 10:30:18;;;;;;;8.40;2.60;;;21.90;99.90;;;;;;6066415;23;20485;-70
2021/09/13 10:32:46;;;;;;;6.70;2.20;;;22.10;99.90;;;;;;6062009;23;20446;-70
2021/09/13 10:35:18;;;;;;;6.30;2.57;;;22.40;99.90;;;;;;6067052;23;20482;-70
2021/09/13 10:37:47;;;;;;;6.07;2.27;;;23.00;99.40;;;;;;6067044;23;20407;-70
2021/09/13 10:40:28;;;;;;;4.70;1.70;;;23.50;98.40;;;;;;6066706;23;20849;-70
2021/09/13 10:42:56;;;;;;;5.20;2.30;;;23.30;97.80;;;;;;6065945;23;20435;-70
2021/09/13 10:45:27;;;;;;;5.20;2.40;;;22.90;98.70;;;;;;6066905;23;20492;-70
2021/09/13 10:48:12;;;;;;;9.63;3.03;;;22.60;99.50;;;;;;6066649;23;20747;-70
2021/09/13 10:50:42;;;;;;;5.53;2.70;;;22.20;99.90;;;;;;6066407;23;20398;-71
2021/09/13 10:53:40;;;;;;;6.83;2.70;;;22.00;99.90;;;;;;6065740;23;20798;-71
2021/09/13 10:56:23;;;;;;;5.37;2.63;;;21.90;99.90;;;;;;5950545;24;20398;-70
2021/09/13 10:58:53;;;;;;;8.87;3.13;;;21.70;99.90;;;;;;6052923;23;20430;-71
2021/09/13 11:01:28;;;;;;;9.13;3.10;;;21.60;99.90;;;;;;6066653;23;20761;-71
2021/09/13 11:03:58;;;;;;;5.17;2.33;;;21.40;99.90;;;;;;6066885;23;20483;-70
2021/09/13 11:06:40;;;;;;;6.00;2.87;;;21.40;99.90;;;;;;6067179;23;20487;-69
2021/09/13 11:09:16;;;;;;;14.60;2.87;;;21.30;99.90;;;;;;6066217;23;20732;-70
2021/09/13 11:11:46;;;;;;;9.63;3.60;;;21.30;99.90;;;;;;6066124;23;20442;-71
2021/09/13 11:14:16;;;;;;;11.53;2.60;;;21.20;99.90;;;;;;6066277;23;20430;-70
2021/09/13 11:16:45;;;;;;;4.30;2.63;;;21.10;99.90;;;;;;6066460;23;20938;-70
2021/09/13 11:19:14;;;;;;;4.37;2.67;;;21.20;99.90;;;;;;6066485;23;20398;-70
2021/09/13 11:21:44;;;;;;;6.00;2.27;;;21.20;99.90;;;;;;6066202;23;20438;-71
2021/09/13 11:24:15;;;;;;;5.33;2.53;;;21.20;99.90;;;;;;6068043;23;20396;-71
2021/09/13 11:26:45;;;;;;;5.23;2.33;;;21.00;99.90;;;;;;6067862;23;21020;-71
2021/09/13 11:29:14;;;;;;;3.53;1.57;;;20.80;99.90;;;;;;6068495;23;20433;-71
2021/09/13 11:31:43;;;;;;;5.30;2.23;;;20.70;99.90;;;;;;6068415;23;20443;-71
2021/09/13 11:34:27;;;;;;;3.50;2.20;;;20.70;99.90;;;;;;6068023;23;20716;-70
2021/09/13 11:36:58;;;;;;;4.40;2.00;;;20.70;99.90;;;;;;6068224;23;20395;-71
2021/09/13 11:39:27;;;;;;;6.60;2.03;;;20.50;99.90;;;;;;6068188;23;20438;-71
2021/09/13 11:41:57;;;;;;;5.70;2.63;;;20.50;99.90;;;;;;6067749;23;20438;-72
2021/09/13 11:44:26;;;;;;;3.83;2.47;;;20.60;99.90;;;;;;6067975;23;20772;-71
2021/09/13 11:46:58;;;;;;;10.07;2.80;;;20.60;99.90;;;;;;6068102;23;20515;-69
2021/09/13 11:49:28;;;;;;;4.63;2.47;;;20.80;99.90;;;;;;6068348;23;20393;-71
2021/09/13 11:52:19;;;;;;;9.63;4.00;;;20.90;99.90;;;;;;6067964;23;20518;-70
2021/09/13 11:54:59;;;;;;;4.60;3.23;;;21.30;99.90;;;;;;6067820;23;20407;-70
2021/09/13 11:57:31;;;;;;;5.73;3.20;;;21.50;99.90;;;;;;6067555;23;20483;-69
2021/09/13 12:00:05;;;;;;;12.20;2.70;;;22.00;99.90;;;;;;6068013;23;20860;-69
2021/09/13 12:02:33;;;;;;;9.00;3.63;;;22.50;99.90;;;;;;6067141;23;20438;-69
2021/09/13 12:05:07;;;;;;;9.97;5.90;;;23.00;99.90;;;;;;6067376;23;20438;-70
2021/09/13 12:07:34;;;;;;;7.20;2.93;;;23.30;99.90;;;;;;6067859;23;20708;-71
2021/09/13 12:10:02;;;;;;;4.03;2.10;;;23.50;99.50;;;;;;6067783;23;20423;-70
2021/09/13 12:12:31;;;;;;;11.20;5.73;;;23.40;98.60;;;;;;6067252;23;20435;-70
2021/09/13 12:15:03;;;;;;;3.90;3.10;;;23.50;98.90;;;;;;6067710;23;20399;-70
2021/09/13 12:17:38;;;;;;;7.57;4.30;;;23.50;97.80;;;;;;6068470;23;20394;-70
2021/09/13 12:20:15;;;;;;;3.77;1.90;;;23.30;98.70;;;;;;6067378;23;20391;-70
2021/09/13 12:22:42;;;;;;;4.00;1.63;;;23.30;98.70;;;;;;6067274;23;20454;-69
2021/09/13 12:25:14;;;;;;;8.60;3.57;;;23.30;98.60;;;;;;6067603;23;20431;-70
2021/09/13 12:27:44;;;;;;;11.37;3.30;;;23.20;98.80;;;;;;6067707;23;20400;-70
2021/09/13 12:30:17;;;;;;;5.03;3.30;;;23.10;99.40;;;;;;6067235;23;20415;-70
2021/09/13 12:32:51;;;;;;;12.80;6.37;;;23.00;99.00;;;;;;6066307;23;20514;-70
2021/09/13 12:35:29;;;;;;;8.60;3.53;;;22.90;99.80;;;;;;6067117;23;20761;-70
2021/09/13 12:37:57;;;;;;;17.20;4.03;;;22.80;99.30;;;;;;6067915;23;20427;-70
2021/09/13 12:40:24;;;;;;;5.53;2.37;;;22.70;99.50;;;;;;6067156;23;20400;-71
2021/09/13 12:42:58;;;;;;;8.33;4.07;;;22.60;99.90;;;;;;6066957;23;20434;-70
2021/09/13 12:45:26;;;;;;;8.90;3.37;;;22.70;99.60;;;;;;6067751;23;20392;-70
2021/09/13 12:47:56;;;;;;;9.27;4.27;;;22.60;99.90;;;;;;6067555;23;20427;-71
2021/09/13 12:50:28;;;;;;;5.87;3.40;;;22.60;99.60;;;;;;6067638;23;20411;-70